createdAt,value
2024-02-28T00:00:35.852Z,23.10
2024-02-28T00:01:35.711Z,22.00
2024-02-28T00:02:35.643Z,25.10
2024-02-28T00:03:35.658Z,21.50
2024-02-28T00:04:35.640Z,22.60
2024-02-28T00:05:35.576Z,25.60
2024-02-28T00:06:35.684Z,22.10
2024-02-28T00:07:35.578Z,24.00
2024-02-28T00:08:35.548Z,24.20
2024-02-28T00:09:35.624Z,24.60
2024-02-28T00:10:35.550Z,24.10
2024-02-28T00:11:35.527Z,23.50
2024-02-28T00:12:35.644Z,23.30
2024-02-28T00:13:35.472Z,24.00
2024-02-28T00:14:35.492Z,25.40
2024-02-28T00:15:35.500Z,24.00
2024-02-28T00:16:35.468Z,23.60
2024-02-28T00:17:35.439Z,26.00
2024-02-28T00:18:35.475Z,21.60
2024-02-28T00:19:35.410Z,24.40
2024-02-28T00:20:35.436Z,24.60
2024-02-28T00:21:35.455Z,24.30
2024-02-28T00:22:35.394Z,22.90
2024-02-28T00:23:35.381Z,26.20
2024-02-28T00:24:35.413Z,24.20
2024-02-28T00:25:35.301Z,25.90
2024-02-28T00:26:35.349Z,25.30
2024-02-28T00:27:35.374Z,24.90
2024-02-28T00:28:35.309Z,24.00
2024-02-28T00:29:35.264Z,24.40
2024-02-28T00:30:35.306Z,24.10
2024-02-28T00:31:35.278Z,24.90
2024-02-28T00:32:35.292Z,22.30
2024-02-28T00:33:35.264Z,23.80
2024-02-28T00:34:35.210Z,24.00
2024-02-28T00:35:35.222Z,25.50
2024-02-28T00:36:44.084Z,24.00
2024-02-28T00:37:35.191Z,25.60
2024-02-28T00:38:35.138Z,24.50
2024-02-28T00:39:35.162Z,23.20
2024-02-28T00:40:35.133Z,24.60
2024-02-28T00:41:35.121Z,27.10
2024-02-28T00:42:35.119Z,23.70
2024-02-28T00:43:35.098Z,27.20
2024-02-28T00:44:35.091Z,23.60
2024-02-28T00:45:35.137Z,23.50
2024-02-28T00:46:35.062Z,22.70
2024-02-28T00:47:35.093Z,24.50
2024-02-28T00:48:35.068Z,23.30
2024-02-28T00:49:35.048Z,28.20
2024-02-28T00:50:34.991Z,24.90
2024-02-28T00:51:35.107Z,26.00
2024-02-28T00:52:34.955Z,26.90
2024-02-28T00:53:34.964Z,24.70
2024-02-28T00:54:34.964Z,24.40
2024-02-28T00:55:34.973Z,25.00
2024-02-28T00:56:34.904Z,26.80
2024-02-28T00:57:34.929Z,24.40
2024-02-28T00:58:34.857Z,27.00
2024-02-28T00:59:34.879Z,25.50
2024-02-28T01:00:34.932Z,25.30
2024-02-28T01:01:34.922Z,27.20
2024-02-28T01:02:34.842Z,27.20
2024-02-28T01:03:34.867Z,26.40
2024-02-28T01:04:34.795Z,27.20
2024-02-28T01:05:34.844Z,27.20
2024-02-28T01:06:34.839Z,28.80
2024-02-28T01:07:34.792Z,24.60
2024-02-28T01:08:34.764Z,27.40
2024-02-28T01:09:34.838Z,28.50
2024-02-28T01:10:34.726Z,28.00
2024-02-28T01:11:34.813Z,26.70
2024-02-28T01:12:34.756Z,26.30
2024-02-28T01:13:34.680Z,26.40
2024-02-28T01:14:34.685Z,28.10
2024-02-28T01:15:34.689Z,25.60
2024-02-28T01:16:34.632Z,29.20
2024-02-28T01:17:34.656Z,32.00
2024-02-28T01:18:34.701Z,30.50
2024-02-28T01:19:34.629Z,27.50
2024-02-28T01:20:34.598Z,30.20
2024-02-28T01:21:34.618Z,29.50
2024-02-28T01:22:34.584Z,28.40
2024-02-28T01:23:34.569Z,29.40
2024-02-28T01:24:34.637Z,32.20
2024-02-28T01:25:34.547Z,30.80
2024-02-28T01:26:34.492Z,29.10
2024-02-28T01:27:34.656Z,34.10
2024-02-28T01:28:34.517Z,34.00
2024-02-28T01:29:34.483Z,30.10
2024-02-28T01:30:34.571Z,31.30
2024-02-28T01:31:34.447Z,31.00
2024-02-28T01:32:34.486Z,33.20
2024-02-28T01:33:34.467Z,29.90
2024-02-28T01:34:34.416Z,32.50
2024-02-28T01:35:34.407Z,35.90
2024-02-28T01:36:34.404Z,36.90
2024-02-28T01:37:34.410Z,33.00
2024-02-28T01:38:34.347Z,34.90
2024-02-28T01:39:34.399Z,33.60
2024-02-28T01:40:34.295Z,34.90
2024-02-28T01:41:34.330Z,34.50
2024-02-28T01:42:34.379Z,33.40
2024-02-28T01:43:34.333Z,31.90
2024-02-28T01:44:34.270Z,34.40
2024-02-28T01:45:34.276Z,36.60
2024-02-28T01:46:34.239Z,33.40
2024-02-28T01:47:34.311Z,34.90
2024-02-28T01:48:34.295Z,36.60
2024-02-28T01:49:34.213Z,34.90
2024-02-28T01:50:34.210Z,35.10
2024-02-28T01:51:34.267Z,33.20
2024-02-28T01:52:34.148Z,34.80
2024-02-28T01:53:34.189Z,38.00
2024-02-28T01:54:34.144Z,35.00
2024-02-28T01:55:34.165Z,37.50
2024-02-28T01:56:34.086Z,35.50
2024-02-28T01:57:34.164Z,39.90
2024-02-28T01:58:34.112Z,38.30
2024-02-28T01:59:34.143Z,35.30
2024-02-28T02:00:34.105Z,37.20
2024-02-28T02:01:34.127Z,37.30
2024-02-28T02:02:34.021Z,36.90
2024-02-28T02:03:34.075Z,36.60
2024-02-28T02:04:33.982Z,37.50
2024-02-28T02:05:34.021Z,38.30
2024-02-28T02:06:34.007Z,36.50
2024-02-28T02:07:33.982Z,36.00
2024-02-28T02:08:33.963Z,37.70
2024-02-28T02:09:34.063Z,40.10
2024-02-28T02:10:33.953Z,38.20
2024-02-28T02:11:33.971Z,39.80
2024-02-28T02:12:33.984Z,39.50
2024-02-28T02:13:33.904Z,36.70
2024-02-28T02:14:33.877Z,39.70
2024-02-28T02:15:33.932Z,39.40
2024-02-28T02:16:33.863Z,37.50
2024-02-28T02:17:33.913Z,36.70
2024-02-28T02:18:33.965Z,39.30
2024-02-28T02:19:33.935Z,40.50
2024-02-28T02:20:33.810Z,41.90
2024-02-28T02:21:33.824Z,40.10
2024-02-28T02:22:33.741Z,40.90
2024-02-28T02:23:33.777Z,39.90
2024-02-28T02:24:33.763Z,40.10
2024-02-28T02:25:33.754Z,38.10
2024-02-28T02:26:33.705Z,42.50
2024-02-28T02:27:33.742Z,39.80
2024-02-28T02:28:33.667Z,42.60
2024-02-28T02:29:33.677Z,39.90
2024-02-28T02:30:33.673Z,45.10
2024-02-28T02:31:33.702Z,43.40
2024-02-28T02:32:33.623Z,40.00
2024-02-28T02:33:33.711Z,45.10
2024-02-28T02:34:33.595Z,45.30
2024-02-28T02:35:33.597Z,40.40
2024-02-28T02:36:33.645Z,42.40
2024-02-28T02:37:34.308Z,45.30
2024-02-28T02:38:33.531Z,42.90
2024-02-28T02:39:33.588Z,44.70
2024-02-28T02:40:33.524Z,44.20
2024-02-28T02:41:33.522Z,42.70
2024-02-28T02:42:33.528Z,43.50
2024-02-28T02:43:33.520Z,43.90
2024-02-28T02:44:33.449Z,43.70
2024-02-28T02:45:33.523Z,44.10
2024-02-28T02:46:33.474Z,45.50
2024-02-28T02:47:33.469Z,47.20
2024-02-28T02:48:33.424Z,44.20
2024-02-28T02:49:33.427Z,48.00
2024-02-28T02:50:33.393Z,45.60
2024-02-28T02:51:33.426Z,44.30
2024-02-28T02:52:33.350Z,47.20
2024-02-28T02:53:33.363Z,47.20
2024-02-28T02:54:33.335Z,45.90
2024-02-28T02:55:33.352Z,47.40
2024-02-28T02:56:33.343Z,45.70
2024-02-28T02:57:33.340Z,48.30
2024-02-28T02:58:33.278Z,47.90
2024-02-28T02:59:33.289Z,47.40
2024-02-28T03:00:33.302Z,47.40
2024-02-28T03:01:33.312Z,46.70
2024-02-28T03:02:33.220Z,45.90
2024-02-28T03:03:33.298Z,46.60
2024-02-28T03:04:33.232Z,46.30
2024-02-28T03:05:33.244Z,46.00
2024-02-28T03:06:33.219Z,50.60
2024-02-28T03:07:33.175Z,46.30
2024-02-28T03:08:33.168Z,46.10
2024-02-28T03:09:33.210Z,45.30
2024-02-28T03:10:33.137Z,49.50
2024-02-28T03:11:33.192Z,47.10
2024-02-28T03:12:33.114Z,47.00
2024-02-28T03:13:33.089Z,48.20
2024-02-28T03:14:33.057Z,46.60
2024-02-28T03:15:33.095Z,47.20
2024-02-28T03:16:33.033Z,46.30
2024-02-28T03:17:33.076Z,50.60
2024-02-28T03:18:33.080Z,47.50
2024-02-28T03:19:33.052Z,47.90
2024-02-28T03:20:32.973Z,47.90
2024-02-28T03:21:33.043Z,49.70
2024-02-28T03:22:32.959Z,49.60
2024-02-28T03:23:32.978Z,46.10
2024-02-28T03:24:32.999Z,49.00
2024-02-28T03:25:32.962Z,49.80
2024-02-28T03:26:32.913Z,49.80
2024-02-28T03:27:32.995Z,47.20
2024-02-28T03:28:32.868Z,51.60
2024-02-28T03:29:33.742Z,51.00
2024-02-28T03:30:32.858Z,49.00
2024-02-28T03:31:32.864Z,50.40
2024-02-28T03:32:32.916Z,50.10
2024-02-28T03:33:32.913Z,51.20
2024-02-28T03:34:32.805Z,49.00
2024-02-28T03:35:32.835Z,47.10
2024-02-28T03:36:32.789Z,48.40
2024-02-28T03:37:32.818Z,48.40
2024-02-28T03:38:32.745Z,47.00
2024-02-28T03:39:32.812Z,45.80
2024-02-28T03:40:32.713Z,49.40
2024-02-28T03:41:32.740Z,45.60
2024-02-28T03:42:32.766Z,44.80
2024-02-28T03:43:32.701Z,46.10
2024-02-28T03:44:32.685Z,42.70
2024-02-28T03:45:32.690Z,45.40
2024-02-28T03:46:32.638Z,42.50
2024-02-28T03:47:32.719Z,43.70
2024-02-28T03:48:32.673Z,42.50
2024-02-28T03:49:32.638Z,39.90
2024-02-28T03:50:32.591Z,38.10
2024-02-28T03:51:33.623Z,41.90
2024-02-28T03:52:32.573Z,39.20
2024-02-28T03:53:32.571Z,40.10
2024-02-28T03:54:32.598Z,44.10
2024-02-28T03:55:32.527Z,41.50
2024-02-28T03:56:32.519Z,42.70
2024-02-28T03:57:32.547Z,43.20
2024-02-28T03:58:32.494Z,43.70
2024-02-28T03:59:32.499Z,41.80
2024-02-28T04:00:32.559Z,44.30
2024-02-28T04:01:32.550Z,45.70
2024-02-28T04:02:32.412Z,39.70
2024-02-28T04:03:32.458Z,45.50
2024-02-28T04:04:32.399Z,41.40
2024-02-28T04:05:32.385Z,41.90
2024-02-28T04:06:32.401Z,42.00
2024-02-28T04:07:32.399Z,41.80
2024-02-28T04:08:32.329Z,41.60
2024-02-28T04:09:32.373Z,39.30
2024-02-28T04:10:32.337Z,39.90
2024-02-28T04:11:32.428Z,41.40
2024-02-28T04:12:32.371Z,43.40
2024-02-28T04:13:32.314Z,42.10
2024-02-28T04:14:32.260Z,42.90
2024-02-28T04:15:32.336Z,41.30
2024-02-28T04:16:32.239Z,39.50
2024-02-28T04:17:32.288Z,41.70
2024-02-28T04:18:32.212Z,41.70
2024-02-28T04:19:32.203Z,42.30
2024-02-28T04:20:32.183Z,44.80
2024-02-28T04:21:32.335Z,42.20
2024-02-28T04:22:32.148Z,44.00
2024-02-28T04:23:32.189Z,42.10
2024-02-28T04:24:32.188Z,41.20
2024-02-28T04:25:32.142Z,42.30
2024-02-28T04:26:32.133Z,39.60
2024-02-28T04:27:32.182Z,40.90
2024-02-28T04:28:32.069Z,45.10
2024-02-28T04:29:32.090Z,39.10
2024-02-28T04:30:32.088Z,40.50
2024-02-28T04:31:32.082Z,41.20
2024-02-28T04:32:32.069Z,40.90
2024-02-28T04:33:32.088Z,40.60
2024-02-28T04:34:32.014Z,40.60
2024-02-28T04:35:32.019Z,43.50
2024-02-28T04:36:32.023Z,43.90
2024-02-28T04:37:31.989Z,39.10
2024-02-28T04:38:31.962Z,40.70
2024-02-28T04:39:31.997Z,42.50
2024-02-28T04:40:31.966Z,42.60
2024-02-28T04:41:31.941Z,43.90
2024-02-28T04:42:31.969Z,45.50
2024-02-28T04:43:31.892Z,45.10
2024-02-28T04:44:31.868Z,42.80
2024-02-28T04:45:31.906Z,43.20
2024-02-28T04:46:31.893Z,44.90
2024-02-28T04:47:36.745Z,43.20
2024-02-28T04:48:31.909Z,41.40
2024-02-28T04:49:31.791Z,45.40
2024-02-28T04:50:31.821Z,43.60
2024-02-28T04:51:31.795Z,41.00
2024-02-28T04:52:31.828Z,41.30
2024-02-28T04:53:31.760Z,43.60
2024-02-28T04:54:31.786Z,41.00
2024-02-28T04:55:31.716Z,42.10
2024-02-28T04:56:31.730Z,43.40
2024-02-28T04:57:31.717Z,41.90
2024-02-28T04:58:31.707Z,41.30
2024-02-28T04:59:31.673Z,43.80
2024-02-28T05:00:31.691Z,43.70
2024-02-28T05:01:31.707Z,44.30
2024-02-28T05:02:31.654Z,45.60
2024-02-28T05:03:31.675Z,44.90
2024-02-28T05:04:31.615Z,44.90
2024-02-28T05:05:31.614Z,42.30
2024-02-28T05:06:31.639Z,43.50
2024-02-28T05:07:31.564Z,44.40
2024-02-28T05:08:31.569Z,42.30
2024-02-28T05:09:31.634Z,43.80
2024-02-28T05:10:31.596Z,43.80
2024-02-28T05:11:31.515Z,47.80
2024-02-28T05:12:31.567Z,45.20
2024-02-28T05:13:31.498Z,48.90
2024-02-28T05:14:31.496Z,42.00
2024-02-28T05:15:31.491Z,47.60
2024-02-28T05:16:31.483Z,48.00
2024-02-28T05:17:31.432Z,47.60
2024-02-28T05:18:31.470Z,46.10
2024-02-28T05:19:31.401Z,49.00
2024-02-28T05:20:31.435Z,47.80
2024-02-28T05:21:31.420Z,43.20
2024-02-28T05:22:31.425Z,45.60
2024-02-28T05:23:31.330Z,49.10
2024-02-28T05:24:31.493Z,49.10
2024-02-28T05:25:31.365Z,46.50
2024-02-28T05:26:31.330Z,50.40
2024-02-28T05:27:31.378Z,43.70
2024-02-28T05:28:31.292Z,47.00
2024-02-28T05:29:31.274Z,46.80
2024-02-28T05:30:31.329Z,48.60
2024-02-28T05:31:31.275Z,48.80
2024-02-28T05:32:31.296Z,46.30
2024-02-28T05:33:31.285Z,50.50
2024-02-28T05:34:31.233Z,49.50
2024-02-28T05:35:31.189Z,47.60
2024-02-28T05:36:31.266Z,47.90
2024-02-28T05:37:31.165Z,49.40
2024-02-28T05:38:31.211Z,50.40
2024-02-28T05:39:31.157Z,47.70
2024-02-28T05:40:31.153Z,46.50
2024-02-28T05:41:31.104Z,47.70
2024-02-28T05:42:31.142Z,47.80
2024-02-28T05:43:31.088Z,49.40
2024-02-28T05:44:31.128Z,48.80
2024-02-28T05:45:31.096Z,47.40
2024-02-28T05:46:31.064Z,52.50
2024-02-28T05:47:31.082Z,54.30
2024-02-28T05:48:31.115Z,52.30
2024-02-28T05:49:31.030Z,55.70
2024-02-28T05:50:31.069Z,56.20
2024-02-28T05:51:31.014Z,56.90
2024-02-28T05:52:31.004Z,63.10
2024-02-28T05:53:30.961Z,57.90
2024-02-28T05:54:31.282Z,65.30
2024-02-28T05:55:30.973Z,72.80
2024-02-28T05:56:30.972Z,69.50
2024-02-28T05:57:30.896Z,70.70
2024-02-28T05:58:30.904Z,73.30
2024-02-28T05:59:30.925Z,73.00
2024-02-28T06:00:30.964Z,74.20
2024-02-28T06:01:30.902Z,72.60
2024-02-28T06:02:30.877Z,72.30
2024-02-28T06:03:30.860Z,71.80
2024-02-28T06:04:30.844Z,75.50
2024-02-28T06:05:30.807Z,72.70
2024-02-28T06:06:30.851Z,72.20
2024-02-28T06:07:30.760Z,66.80
2024-02-28T06:08:30.786Z,70.80
2024-02-28T06:09:30.777Z,67.90
2024-02-28T06:10:30.796Z,67.10
2024-02-28T06:11:30.810Z,63.30
2024-02-28T06:12:30.776Z,67.00
2024-02-28T06:13:30.706Z,65.00
2024-02-28T06:14:30.709Z,65.20
2024-02-28T06:15:30.682Z,66.60
2024-02-28T06:16:30.688Z,66.40
2024-02-28T06:17:30.688Z,61.40
2024-02-28T06:18:30.714Z,63.80
2024-02-28T06:19:30.640Z,62.40
2024-02-28T06:20:30.633Z,66.60
2024-02-28T06:21:30.659Z,67.30
2024-02-28T06:22:30.618Z,65.30
2024-02-28T06:23:30.854Z,62.00
2024-02-28T06:24:30.765Z,67.10
2024-02-28T06:25:30.567Z,63.00
2024-02-28T06:26:30.544Z,68.80
2024-02-28T06:27:30.545Z,72.50
2024-02-28T06:28:30.545Z,67.00
2024-02-28T06:29:30.498Z,69.20
2024-02-28T06:30:30.495Z,66.90
2024-02-28T06:31:30.475Z,72.00
2024-02-28T06:32:30.493Z,65.30
2024-02-28T06:33:30.512Z,75.50
2024-02-28T06:34:30.470Z,68.30
2024-02-28T06:35:30.472Z,70.70
2024-02-28T06:36:30.502Z,66.40
2024-02-28T06:37:30.453Z,70.20
2024-02-28T06:38:30.470Z,64.60
2024-02-28T06:39:30.438Z,69.80
2024-02-28T06:40:33.294Z,69.10
2024-02-28T06:41:30.459Z,68.40
2024-02-28T06:42:30.394Z,67.20
2024-02-28T06:43:30.294Z,68.50
2024-02-28T06:44:30.358Z,66.70
2024-02-28T06:45:30.334Z,68.10
2024-02-28T06:46:30.353Z,64.90
2024-02-28T06:47:30.291Z,68.70
2024-02-28T06:48:30.316Z,67.70
2024-02-28T06:49:30.246Z,67.50
2024-02-28T06:50:30.248Z,69.10
2024-02-28T06:51:30.258Z,70.00
2024-02-28T06:52:30.207Z,67.80
2024-02-28T06:53:30.174Z,67.90
2024-02-28T06:54:30.196Z,66.30
2024-02-28T06:55:30.210Z,68.70
2024-02-28T06:56:30.144Z,65.40
2024-02-28T06:57:30.143Z,64.50
2024-02-28T06:58:30.124Z,69.50
2024-02-28T06:59:30.117Z,63.60
2024-02-28T07:00:30.158Z,64.40
2024-02-28T07:01:30.123Z,67.60
2024-02-28T07:02:30.079Z,67.90
2024-02-28T07:03:30.090Z,63.70
2024-02-28T07:04:30.057Z,65.00
2024-02-28T07:05:30.037Z,67.10
2024-02-28T07:06:30.087Z,68.10
2024-02-28T07:07:29.975Z,63.70
2024-02-28T07:08:30.000Z,68.60
2024-02-28T07:09:29.982Z,63.60
2024-02-28T07:10:30.034Z,63.80
2024-02-28T07:11:29.982Z,63.70
2024-02-28T07:12:29.960Z,61.70
2024-02-28T07:13:29.906Z,66.30
2024-02-28T07:14:29.933Z,62.50
2024-02-28T07:15:29.875Z,63.50
2024-02-28T07:16:29.887Z,64.70
2024-02-28T07:17:29.855Z,61.50
2024-02-28T07:18:29.921Z,61.90
2024-02-28T07:19:29.877Z,64.90
2024-02-28T07:20:29.845Z,59.90
2024-02-28T07:21:29.831Z,58.60
2024-02-28T07:22:29.844Z,66.00
2024-02-28T07:23:29.767Z,62.70
2024-02-28T07:24:29.792Z,63.60
2024-02-28T07:25:29.749Z,64.20
2024-02-28T07:26:29.768Z,63.70
2024-02-28T07:27:29.774Z,65.10
2024-02-28T07:28:29.725Z,63.20
2024-02-28T07:29:29.680Z,60.80
2024-02-28T07:30:29.744Z,60.40
2024-02-28T07:31:29.691Z,63.60
2024-02-28T07:32:29.712Z,62.10
2024-02-28T07:33:29.698Z,64.80
2024-02-28T07:34:29.666Z,64.80
2024-02-28T07:35:29.621Z,65.10
2024-02-28T07:36:29.632Z,65.60
2024-02-28T07:37:29.593Z,64.80
2024-02-28T07:38:29.638Z,62.80
2024-02-28T07:39:29.629Z,66.30
2024-02-28T07:40:29.578Z,63.40
2024-02-28T07:41:29.529Z,63.20
2024-02-28T07:42:29.607Z,65.20
2024-02-28T07:43:29.497Z,66.20
2024-02-28T07:44:29.584Z,61.40
2024-02-28T07:45:29.577Z,63.50
2024-02-28T07:46:29.479Z,65.50
2024-02-28T07:47:29.547Z,65.10
2024-02-28T07:48:29.462Z,64.90
2024-02-28T07:49:29.469Z,60.40
2024-02-28T07:50:29.440Z,64.60
2024-02-28T07:51:29.488Z,63.40
2024-02-28T07:52:29.402Z,60.40
2024-02-28T07:53:29.396Z,64.70
2024-02-28T07:54:29.379Z,67.10
2024-02-28T07:55:30.219Z,63.30
2024-02-28T07:56:29.327Z,63.40
2024-02-28T07:57:29.375Z,63.10
2024-02-28T07:58:29.332Z,61.30
2024-02-28T07:59:29.339Z,63.90
2024-02-28T08:00:29.301Z,61.90
2024-02-28T08:01:29.508Z,61.10
2024-02-28T08:02:29.357Z,65.20
2024-02-28T08:03:29.293Z,63.70
2024-02-28T08:04:29.242Z,65.20
2024-02-28T08:05:29.325Z,66.90
2024-02-28T08:06:29.211Z,65.60
2024-02-28T08:07:29.231Z,63.50
2024-02-28T08:08:29.174Z,59.40
2024-02-28T08:09:29.226Z,61.50
2024-02-28T08:10:29.181Z,65.70
2024-02-28T08:11:29.238Z,64.10
2024-02-28T08:12:29.147Z,69.50
2024-02-28T08:13:29.147Z,64.00
2024-02-28T08:14:29.117Z,61.90
2024-02-28T08:15:29.168Z,66.30
2024-02-28T08:16:31.687Z,65.70
2024-02-28T08:17:29.294Z,60.40
2024-02-28T08:18:29.085Z,60.80
2024-02-28T08:19:29.060Z,65.20
2024-02-28T08:20:29.093Z,61.10
2024-02-28T08:21:29.107Z,63.20
2024-02-28T08:22:29.001Z,59.40
2024-02-28T08:23:29.027Z,65.40
2024-02-28T08:24:29.020Z,62.10
2024-02-28T08:25:29.052Z,62.40
2024-02-28T08:26:28.958Z,59.50
2024-02-28T08:27:30.321Z,58.80
2024-02-28T08:28:28.906Z,56.80
2024-02-28T08:29:28.916Z,59.50
2024-02-28T08:30:28.934Z,53.30
2024-02-28T08:31:28.926Z,56.30
2024-02-28T08:32:28.850Z,55.90
2024-02-28T08:33:28.953Z,54.90
2024-02-28T08:34:28.879Z,52.70
2024-02-28T08:35:28.851Z,57.30
2024-02-28T08:36:28.861Z,50.80
2024-02-28T08:37:28.827Z,50.30
2024-02-28T08:38:28.781Z,50.10
2024-02-28T08:39:28.845Z,48.80
2024-02-28T08:40:28.781Z,48.40
2024-02-28T08:41:28.828Z,48.50
2024-02-28T08:42:28.742Z,50.80
2024-02-28T08:43:28.725Z,48.90
2024-02-28T08:44:28.692Z,48.50
2024-02-28T08:45:28.759Z,50.50
2024-02-28T08:46:28.728Z,46.10
2024-02-28T08:47:28.752Z,47.20
2024-02-28T08:48:28.656Z,46.10
2024-02-28T08:49:28.679Z,48.20
2024-02-28T08:50:28.645Z,48.60
2024-02-28T08:51:28.745Z,47.20
2024-02-28T08:52:28.583Z,47.30
2024-02-28T08:53:28.686Z,43.90
2024-02-28T08:54:28.628Z,46.70
2024-02-28T08:55:28.577Z,45.60
2024-02-28T08:56:28.618Z,42.50
2024-02-28T08:57:28.569Z,45.20
2024-02-28T08:58:28.609Z,43.30
2024-02-28T08:59:28.547Z,44.00
2024-02-28T09:00:28.546Z,45.20
2024-02-28T09:01:28.598Z,46.60
2024-02-28T09:02:28.510Z,40.60
2024-02-28T09:03:28.508Z,43.40
2024-02-28T09:04:28.500Z,40.60
2024-02-28T09:05:28.415Z,41.90
2024-02-28T09:06:28.523Z,40.70
2024-02-28T09:07:28.408Z,42.70
2024-02-28T09:08:28.421Z,42.80
2024-02-28T09:09:28.395Z,37.90
2024-02-28T09:10:28.399Z,41.30
2024-02-28T09:11:28.396Z,38.00
2024-02-28T09:12:28.365Z,37.10
2024-02-28T09:13:28.321Z,35.60
2024-02-28T09:14:28.367Z,40.40
2024-02-28T09:15:28.410Z,40.20
2024-02-28T09:16:28.319Z,38.90
2024-02-28T09:17:28.335Z,39.30
2024-02-28T09:18:28.320Z,37.10
2024-02-28T09:19:29.143Z,38.60
2024-02-28T09:20:28.263Z,35.50
2024-02-28T09:21:28.267Z,35.40
2024-02-28T09:22:28.242Z,34.90
2024-02-28T09:23:28.221Z,34.80
2024-02-28T09:24:28.227Z,37.90
2024-02-28T09:25:29.346Z,39.60
2024-02-28T09:26:28.171Z,37.40
2024-02-28T09:27:28.207Z,35.60
2024-02-28T09:28:28.145Z,36.90
2024-02-28T09:29:28.125Z,37.90
2024-02-28T09:30:33.086Z,37.20
2024-02-28T09:31:28.149Z,34.80
2024-02-28T09:32:28.129Z,35.00
2024-02-28T09:33:28.076Z,33.60
2024-02-28T09:34:28.046Z,34.90
2024-02-28T09:35:28.070Z,35.30
2024-02-28T09:36:28.066Z,34.10
2024-02-28T09:37:27.994Z,33.80
2024-02-28T09:38:28.030Z,32.50
2024-02-28T09:39:28.019Z,33.90
2024-02-28T09:40:27.975Z,37.10
2024-02-28T09:41:27.965Z,34.90
2024-02-28T09:42:29.277Z,36.60
2024-02-28T09:43:27.920Z,33.30
2024-02-28T09:44:27.926Z,34.70
2024-02-28T09:45:28.022Z,33.70
2024-02-28T09:46:27.884Z,31.20
2024-02-28T09:47:27.949Z,36.60
2024-02-28T09:48:27.915Z,34.00
2024-02-28T09:49:27.828Z,30.80
2024-02-28T09:50:27.830Z,30.80
2024-02-28T09:51:27.810Z,32.60
2024-02-28T09:52:27.809Z,30.40
2024-02-28T09:53:27.818Z,33.00
2024-02-28T09:54:27.879Z,33.00
2024-02-28T09:55:27.763Z,37.40
2024-02-28T09:56:27.799Z,40.50
2024-02-28T09:57:27.733Z,36.10
2024-02-28T09:58:27.822Z,38.80
2024-02-28T09:59:35.287Z,40.50
2024-02-28T10:00:27.763Z,34.70
2024-02-28T10:01:27.763Z,34.20
2024-02-28T10:02:27.664Z,35.60
2024-02-28T10:03:27.678Z,36.00
2024-02-28T10:04:27.672Z,34.80
2024-02-28T10:05:27.669Z,36.10
2024-02-28T10:06:27.776Z,34.70
2024-02-28T10:07:27.606Z,34.70
2024-02-28T10:08:27.620Z,37.30
2024-02-28T10:09:27.633Z,35.50
2024-02-28T10:10:27.587Z,33.50
2024-02-28T10:11:27.581Z,32.70
2024-02-28T10:12:27.604Z,33.40
2024-02-28T10:13:27.503Z,33.80
2024-02-28T10:14:27.536Z,36.40
2024-02-28T10:15:27.526Z,35.20
2024-02-28T10:16:27.487Z,34.00
2024-02-28T10:17:29.469Z,37.70
2024-02-28T10:18:27.606Z,34.30
2024-02-28T10:19:27.408Z,36.10
2024-02-28T10:20:27.454Z,34.20
2024-02-28T10:21:27.503Z,31.60
2024-02-28T10:22:27.417Z,34.60
2024-02-28T10:23:27.382Z,34.00
2024-02-28T10:24:27.437Z,34.10
2024-02-28T10:25:28.990Z,32.30
2024-02-28T10:26:27.371Z,29.70
2024-02-28T10:27:27.410Z,32.00
2024-02-28T10:28:27.342Z,30.00
2024-02-28T10:29:27.294Z,30.90
2024-02-28T10:30:27.344Z,32.50
2024-02-28T10:31:27.293Z,31.10
2024-02-28T10:32:27.278Z,31.40
2024-02-28T10:33:27.266Z,32.10
2024-02-28T10:34:27.234Z,30.80
2024-02-28T10:35:27.239Z,31.40
2024-02-28T10:36:27.274Z,32.10
2024-02-28T10:37:27.215Z,34.30
2024-02-28T10:38:27.220Z,33.80
2024-02-28T10:39:27.174Z,32.60
2024-02-28T10:40:27.273Z,34.00
2024-02-28T10:41:27.172Z,34.20
2024-02-28T10:42:27.277Z,33.50
2024-02-28T10:43:27.201Z,32.90
2024-02-28T10:44:27.138Z,33.20
2024-02-28T10:45:41.966Z,34.60
2024-02-28T10:46:35.991Z,34.90
2024-02-28T10:47:27.163Z,34.00
2024-02-28T10:48:27.203Z,35.90
2024-02-28T10:49:27.038Z,33.10
2024-02-28T10:50:27.041Z,32.20
2024-02-28T10:51:27.083Z,35.40
2024-02-28T10:52:27.051Z,35.00
2024-02-28T10:53:26.976Z,32.60
2024-02-28T10:54:27.025Z,33.80
2024-02-28T10:55:26.974Z,33.30
2024-02-28T10:56:26.989Z,32.60
2024-02-28T10:57:26.981Z,33.90
2024-02-28T10:58:26.935Z,32.50
2024-02-28T10:59:26.935Z,36.60
2024-02-28T11:00:26.951Z,34.50
2024-02-28T11:01:26.924Z,35.10
2024-02-28T11:02:26.929Z,35.10
2024-02-28T11:03:26.924Z,33.50
2024-02-28T11:04:26.860Z,32.00
2024-02-28T11:05:26.869Z,34.70
2024-02-28T11:06:26.854Z,33.50
2024-02-28T11:07:26.778Z,32.80
2024-02-28T11:08:26.804Z,35.30
2024-02-28T11:09:27.221Z,37.60
2024-02-28T11:10:26.766Z,32.50
2024-02-28T11:11:26.741Z,29.80
2024-02-28T11:12:26.807Z,29.20
2024-02-28T11:13:26.735Z,32.20
2024-02-28T11:14:26.991Z,30.00
2024-02-28T11:15:26.724Z,28.50
2024-02-28T11:16:26.715Z,28.60
2024-02-28T11:17:26.656Z,27.30
2024-02-28T11:18:26.708Z,31.00
2024-02-28T11:19:26.637Z,28.20
2024-02-28T11:20:26.684Z,28.20
2024-02-28T11:21:26.629Z,25.70
2024-02-28T11:22:26.643Z,28.00
2024-02-28T11:23:26.573Z,28.70
2024-02-28T11:24:26.683Z,29.10
2024-02-28T11:25:26.577Z,27.60
2024-02-28T11:26:26.549Z,26.40
2024-02-28T11:27:26.550Z,28.90
2024-02-28T11:28:26.521Z,29.30
2024-02-28T11:29:26.519Z,28.80
2024-02-28T11:30:26.604Z,29.70
2024-02-28T11:31:26.501Z,28.70
2024-02-28T11:32:26.455Z,30.30
2024-02-28T11:33:26.538Z,28.90
2024-02-28T11:34:26.600Z,28.90
2024-02-28T11:35:26.412Z,26.40
2024-02-28T11:36:26.437Z,28.00
2024-02-28T11:37:26.399Z,26.00
2024-02-28T11:38:26.411Z,25.60
2024-02-28T11:39:26.816Z,26.70
2024-02-28T11:40:26.380Z,28.50
2024-02-28T11:41:26.354Z,28.30
2024-02-28T11:42:26.361Z,28.60
2024-02-28T11:43:27.239Z,29.10
2024-02-28T11:44:26.339Z,31.50
2024-02-28T11:45:26.300Z,29.80
2024-02-28T11:46:26.296Z,27.70
2024-02-28T11:47:26.270Z,26.10
2024-02-28T11:48:26.302Z,26.30
2024-02-28T11:49:26.211Z,29.10
2024-02-28T11:50:26.241Z,31.60
2024-02-28T11:51:26.298Z,29.60
2024-02-28T11:52:26.233Z,28.60
2024-02-28T11:53:26.185Z,30.50
2024-02-28T11:54:26.232Z,30.40
2024-02-28T11:55:26.172Z,29.90
2024-02-28T11:56:26.177Z,31.60
2024-02-28T11:57:26.166Z,30.70
2024-02-28T11:58:26.119Z,29.00
2024-02-28T11:59:26.116Z,25.50
2024-02-28T12:00:26.171Z,26.90
2024-02-28T12:01:26.133Z,25.50
2024-02-28T12:02:26.072Z,26.00
2024-02-28T12:03:26.053Z,26.80
2024-02-28T12:04:26.046Z,27.50
2024-02-28T12:05:26.054Z,25.60
2024-02-28T12:06:26.025Z,27.50
2024-02-28T12:07:25.970Z,26.50
2024-02-28T12:08:28.095Z,24.80
2024-02-28T12:09:31.817Z,25.50
2024-02-28T12:10:25.998Z,23.90
2024-02-28T12:11:25.976Z,25.70
2024-02-28T12:12:26.106Z,24.30
2024-02-28T12:13:25.912Z,26.10
2024-02-28T12:14:25.929Z,24.70
2024-02-28T12:15:25.923Z,27.60
2024-02-28T12:16:25.894Z,24.80
2024-02-28T12:17:25.883Z,24.70
2024-02-28T12:18:25.859Z,22.80
2024-02-28T12:19:25.837Z,24.10
2024-02-28T12:20:25.851Z,23.50
2024-02-28T12:21:25.825Z,24.80
2024-02-28T12:22:25.822Z,23.90
2024-02-28T12:23:25.808Z,25.10
2024-02-28T12:24:25.788Z,26.70
2024-02-28T12:25:25.734Z,25.10
2024-02-28T12:26:25.793Z,24.40
2024-02-28T12:27:25.788Z,23.60
2024-02-28T12:28:25.747Z,26.70
2024-02-28T12:29:25.726Z,26.20
2024-02-28T12:30:25.772Z,26.20
2024-02-28T12:31:25.662Z,26.00
2024-02-28T12:32:25.707Z,27.80
2024-02-28T12:33:25.655Z,26.70
2024-02-28T12:34:25.685Z,26.30
2024-02-28T12:35:25.606Z,22.10
2024-02-28T12:36:25.736Z,23.50
2024-02-28T12:37:25.587Z,23.10
2024-02-28T12:38:25.618Z,21.80
2024-02-28T12:39:25.559Z,22.60
2024-02-28T12:40:25.584Z,20.40
2024-02-28T12:41:25.534Z,20.10
2024-02-28T12:42:25.585Z,20.90
2024-02-28T12:43:25.586Z,24.70
2024-02-28T12:44:25.630Z,24.40
2024-02-28T12:45:25.507Z,22.60
2024-02-28T12:46:25.499Z,19.30
2024-02-28T12:47:25.444Z,27.00
2024-02-28T12:48:25.584Z,21.70
2024-02-28T12:49:25.456Z,22.50
2024-02-28T12:50:25.441Z,21.40
2024-02-28T12:51:25.456Z,23.50
2024-02-28T12:52:25.423Z,21.30